Ana Sayfa
METAR-TAF:

METAR-TAF

Havaalanları :

Juigalpa, Nikaragua

Enlem: 12-06N, Boylam: 085-22W, yükseklik: 90 m

Güncel hava durumu gözlemi

Rapor saat 23:00 UTC de 8 saat ve 33 dakika önce yapıldı.
Sakin rüzgar
Sıcaklık 30°C
Nem 75%
Basınç 1007 hPa
Görüş mesafesi 10 km veya daha fazla
2000 ft yükseklikte parçalı bulutlu, Kümülonimbus.
8000 ft yükseklikte parçalı bulutlu
gök gürültülü fırtına,

METAR: MNJU 142300Z 00000KT 9999 TS SCT020CB SCT080 30/25 Q1007 CB ALRED

Saat: 01:33 (07:33 UTC)


TAF: eksik

4.000'den fazla havaalanı için hava durumu gözlemleri ve tahminleri (METAR ve TAF raporları).

Kullanılabilir istasyonlar harita üzerinde sarı ve kırmızı noktalarla gösterilir.

İstasyonun adını görmek için fareyi noktanın üzerinde gezdirin.

Sonrasında hava gözlem ve tahminlerini görmek için tıklayın.

Haritayı değiştirmek için: yaklaştırmak için siyah artı işaretli yeşil düğmeye ve uzaklaştırmak için de eksi işaretli düğmeye hızla tıklayın; bitişik haritalar için yeşil okları kullanın.


METAR-TAF: